sensor_id;sensor_type;location;lat;lon;timestamp;P1;durP1;ratioP1;P2;durP2;ratioP2
10432;SDS011;5263;48.680;9.004;2023-07-09T00:02:23;3.90;;;2.70;;
10432;SDS011;5263;48.680;9.004;2023-07-09T00:04:49;3.03;;;2.70;;
10432;SDS011;5263;48.680;9.004;2023-07-09T00:07:17;4.03;;;2.87;;
10432;SDS011;5263;48.680;9.004;2023-07-09T00:09:50;2.83;;;2.60;;
10432;SDS011;5263;48.680;9.004;2023-07-09T00:12:16;4.50;;;3.00;;
10432;SDS011;5263;48.680;9.004;2023-07-09T00:14:42;3.97;;;2.53;;
10432;SDS011;5263;48.680;9.004;2023-07-09T00:17:17;5.50;;;2.20;;
10432;SDS011;5263;48.680;9.004;2023-07-09T00:19:46;2.73;;;2.53;;
10432;SDS011;5263;48.680;9.004;2023-07-09T00:22:16;3.40;;;2.80;;
10432;SDS011;5263;48.680;9.004;2023-07-09T00:24:43;3.10;;;2.80;;
10432;SDS011;5263;48.680;9.004;2023-07-09T00:27:10;4.50;;;2.90;;
10432;SDS011;5263;48.680;9.004;2023-07-09T00:29:37;2.83;;;2.63;;
10432;SDS011;5263;48.680;9.004;2023-07-09T00:32:02;4.63;;;2.47;;
10432;SDS011;5263;48.680;9.004;2023-07-09T00:34:28;3.60;;;2.60;;
10432;SDS011;5263;48.680;9.004;2023-07-09T00:36:54;2.73;;;2.50;;
10432;SDS011;5263;48.680;9.004;2023-07-09T00:39:20;3.37;;;2.93;;
10432;SDS011;5263;48.680;9.004;2023-07-09T00:41:48;3.87;;;2.47;;
10432;SDS011;5263;48.680;9.004;2023-07-09T00:44:20;2.83;;;2.43;;
10432;SDS011;5263;48.680;9.004;2023-07-09T00:49:36;3.20;;;2.90;;
10432;SDS011;5263;48.680;9.004;2023-07-09T00:52:19;2.57;;;2.37;;
10432;SDS011;5263;48.680;9.004;2023-07-09T00:54:53;2.83;;;2.57;;
10432;SDS011;5263;48.680;9.004;2023-07-09T00:57:21;4.17;;;2.67;;
10432;SDS011;5263;48.680;9.004;2023-07-09T00:59:49;4.87;;;2.63;;
10432;SDS011;5263;48.680;9.004;2023-07-09T01:02:19;3.00;;;2.43;;
10432;SDS011;5263;48.680;9.004;2023-07-09T01:04:49;3.43;;;2.27;;
10432;SDS011;5263;48.680;9.004;2023-07-09T01:07:18;5.40;;;2.90;;
10432;SDS011;5263;48.680;9.004;2023-07-09T01:09:44;4.47;;;2.87;;
10432;SDS011;5263;48.680;9.004;2023-07-09T01:12:10;5.27;;;2.40;;
10432;SDS011;5263;48.680;9.004;2023-07-09T01:14:37;2.90;;;2.53;;
10432;SDS011;5263;48.680;9.004;2023-07-09T01:17:04;7.47;;;2.30;;
10432;SDS011;5263;48.680;9.004;2023-07-09T01:19:41;4.60;;;2.80;;
10432;SDS011;5263;48.680;9.004;2023-07-09T01:22:09;4.93;;;3.10;;
10432;SDS011;5263;48.680;9.004;2023-07-09T01:24:47;3.00;;;2.77;;
10432;SDS011;5263;48.680;9.004;2023-07-09T01:27:26;4.37;;;2.43;;
10432;SDS011;5263;48.680;9.004;2023-07-09T01:30:03;3.20;;;2.93;;
10432;SDS011;5263;48.680;9.004;2023-07-09T01:32:34;3.50;;;3.07;;
10432;SDS011;5263;48.680;9.004;2023-07-09T01:35:02;4.60;;;2.80;;
10432;SDS011;5263;48.680;9.004;2023-07-09T01:37:31;3.90;;;3.00;;
10432;SDS011;5263;48.680;9.004;2023-07-09T01:39:59;2.87;;;2.67;;
10432;SDS011;5263;48.680;9.004;2023-07-09T01:42:25;4.00;;;2.20;;
10432;SDS011;5263;48.680;9.004;2023-07-09T01:44:53;4.50;;;2.17;;
10432;SDS011;5263;48.680;9.004;2023-07-09T01:47:20;3.10;;;2.67;;
10432;SDS011;5263;48.680;9.004;2023-07-09T01:49:47;4.53;;;2.30;;
10432;SDS011;5263;48.680;9.004;2023-07-09T01:52:14;3.67;;;2.83;;
10432;SDS011;5263;48.680;9.004;2023-07-09T01:54:41;3.10;;;2.80;;
10432;SDS011;5263;48.680;9.004;2023-07-09T01:59:44;4.40;;;2.87;;
10432;SDS011;5263;48.680;9.004;2023-07-09T02:02:10;3.67;;;2.87;;
10432;SDS011;5263;48.680;9.004;2023-07-09T02:04:43;4.27;;;2.63;;
10432;SDS011;5263;48.680;9.004;2023-07-09T02:07:12;3.83;;;3.43;;
10432;SDS011;5263;48.680;9.004;2023-07-09T02:09:39;9.80;;;2.83;;
10432;SDS011;5263;48.680;9.004;2023-07-09T02:12:04;5.73;;;2.80;;
10432;SDS011;5263;48.680;9.004;2023-07-09T02:14:30;4.47;;;2.93;;
10432;SDS011;5263;48.680;9.004;2023-07-09T02:16:56;4.77;;;2.43;;
10432;SDS011;5263;48.680;9.004;2023-07-09T02:19:21;5.67;;;2.30;;
10432;SDS011;5263;48.680;9.004;2023-07-09T02:21:47;5.37;;;2.57;;
10432;SDS011;5263;48.680;9.004;2023-07-09T02:24:13;3.40;;;2.73;;
10432;SDS011;5263;48.680;9.004;2023-07-09T02:26:38;3.57;;;2.67;;
10432;SDS011;5263;48.680;9.004;2023-07-09T02:29:04;6.87;;;3.63;;
10432;SDS011;5263;48.680;9.004;2023-07-09T02:31:30;5.43;;;2.90;;
10432;SDS011;5263;48.680;9.004;2023-07-09T02:33:56;3.43;;;2.37;;
10432;SDS011;5263;48.680;9.004;2023-07-09T02:36:22;3.67;;;2.77;;
10432;SDS011;5263;48.680;9.004;2023-07-09T02:38:49;3.20;;;2.40;;
10432;SDS011;5263;48.680;9.004;2023-07-09T02:41:14;4.43;;;3.20;;
10432;SDS011;5263;48.680;9.004;2023-07-09T02:43:40;4.73;;;2.93;;
10432;SDS011;5263;48.680;9.004;2023-07-09T02:46:06;4.53;;;2.30;;
10432;SDS011;5263;48.680;9.004;2023-07-09T02:48:32;5.37;;;2.30;;
10432;SDS011;5263;48.680;9.004;2023-07-09T02:50:57;4.67;;;3.07;;
10432;SDS011;5263;48.680;9.004;2023-07-09T02:53:23;6.37;;;3.17;;
10432;SDS011;5263;48.680;9.004;2023-07-09T02:55:50;4.33;;;2.50;;
10432;SDS011;5263;48.680;9.004;2023-07-09T02:58:15;5.47;;;2.60;;
10432;SDS011;5263;48.680;9.004;2023-07-09T03:00:41;3.70;;;3.37;;
10432;SDS011;5263;48.680;9.004;2023-07-09T03:03:07;3.67;;;3.23;;
10432;SDS011;5263;48.680;9.004;2023-07-09T03:05:32;3.30;;;3.00;;
10432;SDS011;5263;48.680;9.004;2023-07-09T03:07:58;3.23;;;2.57;;
10432;SDS011;5263;48.680;9.004;2023-07-09T03:10:24;4.37;;;3.43;;
10432;SDS011;5263;48.680;9.004;2023-07-09T03:12:49;3.07;;;2.57;;
10432;SDS011;5263;48.680;9.004;2023-07-09T03:15:15;2.83;;;2.50;;
10432;SDS011;5263;48.680;9.004;2023-07-09T03:17:40;3.97;;;2.60;;
10432;SDS011;5263;48.680;9.004;2023-07-09T03:20:06;3.43;;;2.97;;
10432;SDS011;5263;48.680;9.004;2023-07-09T03:22:33;3.67;;;2.60;;
10432;SDS011;5263;48.680;9.004;2023-07-09T03:24:58;4.73;;;3.07;;
10432;SDS011;5263;48.680;9.004;2023-07-09T03:27:24;3.20;;;2.90;;
10432;SDS011;5263;48.680;9.004;2023-07-09T03:29:49;3.77;;;2.40;;
10432;SDS011;5263;48.680;9.004;2023-07-09T03:32:15;4.67;;;2.90;;
10432;SDS011;5263;48.680;9.004;2023-07-09T03:34:40;7.67;;;3.40;;
10432;SDS011;5263;48.680;9.004;2023-07-09T03:37:06;4.40;;;2.63;;
10432;SDS011;5263;48.680;9.004;2023-07-09T03:39:32;5.13;;;2.60;;
10432;SDS011;5263;48.680;9.004;2023-07-09T03:41:57;3.27;;;2.60;;
10432;SDS011;5263;48.680;9.004;2023-07-09T03:44:23;4.47;;;2.53;;
10432;SDS011;5263;48.680;9.004;2023-07-09T03:46:50;3.53;;;2.80;;
10432;SDS011;5263;48.680;9.004;2023-07-09T03:49:15;4.53;;;3.10;;
10432;SDS011;5263;48.680;9.004;2023-07-09T03:51:41;4.07;;;2.53;;
10432;SDS011;5263;48.680;9.004;2023-07-09T03:54:06;3.00;;;2.70;;
10432;SDS011;5263;48.680;9.004;2023-07-09T03:56:32;2.93;;;2.70;;
10432;SDS011;5263;48.680;9.004;2023-07-09T03:58:58;4.47;;;2.93;;
10432;SDS011;5263;48.680;9.004;2023-07-09T04:01:23;5.13;;;3.10;;
10432;SDS011;5263;48.680;9.004;2023-07-09T04:03:49;3.83;;;2.60;;
10432;SDS011;5263;48.680;9.004;2023-07-09T04:06:15;3.17;;;2.57;;
10432;SDS011;5263;48.680;9.004;2023-07-09T04:08:40;2.93;;;2.67;;
10432;SDS011;5263;48.680;9.004;2023-07-09T04:11:06;3.57;;;2.70;;
10432;SDS011;5263;48.680;9.004;2023-07-09T04:13:31;2.70;;;2.50;;
10432;SDS011;5263;48.680;9.004;2023-07-09T04:15:57;6.80;;;3.80;;
10432;SDS011;5263;48.680;9.004;2023-07-09T04:18:23;3.50;;;2.37;;
10432;SDS011;5263;48.680;9.004;2023-07-09T04:20:49;7.67;;;2.73;;
10432;SDS011;5263;48.680;9.004;2023-07-09T04:23:15;5.33;;;2.83;;
10432;SDS011;5263;48.680;9.004;2023-07-09T04:25:41;4.33;;;2.93;;
10432;SDS011;5263;48.680;9.004;2023-07-09T04:28:07;5.87;;;2.53;;
10432;SDS011;5263;48.680;9.004;2023-07-09T04:30:32;3.47;;;2.73;;
10432;SDS011;5263;48.680;9.004;2023-07-09T04:32:58;4.47;;;3.20;;
10432;SDS011;5263;48.680;9.004;2023-07-09T04:35:24;6.40;;;3.17;;
10432;SDS011;5263;48.680;9.004;2023-07-09T04:37:49;4.73;;;3.37;;
10432;SDS011;5263;48.680;9.004;2023-07-09T04:40:16;3.23;;;2.57;;
10432;SDS011;5263;48.680;9.004;2023-07-09T04:42:43;3.77;;;2.63;;
10432;SDS011;5263;48.680;9.004;2023-07-09T04:45:09;4.93;;;3.03;;
10432;SDS011;5263;48.680;9.004;2023-07-09T04:47:36;5.33;;;3.10;;
10432;SDS011;5263;48.680;9.004;2023-07-09T04:50:05;3.90;;;2.70;;
10432;SDS011;5263;48.680;9.004;2023-07-09T04:52:32;6.23;;;2.83;;
10432;SDS011;5263;48.680;9.004;2023-07-09T04:54:58;3.00;;;2.70;;
10432;SDS011;5263;48.680;9.004;2023-07-09T04:57:24;2.67;;;2.23;;
10432;SDS011;5263;48.680;9.004;2023-07-09T04:59:51;6.40;;;2.73;;
10432;SDS011;5263;48.680;9.004;2023-07-09T05:02:17;4.60;;;3.07;;
10432;SDS011;5263;48.680;9.004;2023-07-09T05:04:42;2.87;;;2.67;;
10432;SDS011;5263;48.680;9.004;2023-07-09T05:07:08;6.33;;;2.73;;
10432;SDS011;5263;48.680;9.004;2023-07-09T05:09:33;3.37;;;2.90;;
10432;SDS011;5263;48.680;9.004;2023-07-09T05:11:59;4.00;;;3.03;;
10432;SDS011;5263;48.680;9.004;2023-07-09T05:14:26;5.97;;;2.93;;
10432;SDS011;5263;48.680;9.004;2023-07-09T05:16:52;3.33;;;2.90;;
10432;SDS011;5263;48.680;9.004;2023-07-09T05:19:18;5.53;;;2.97;;
10432;SDS011;5263;48.680;9.004;2023-07-09T05:21:44;2.97;;;2.57;;
10432;SDS011;5263;48.680;9.004;2023-07-09T05:24:09;7.17;;;2.80;;
10432;SDS011;5263;48.680;9.004;2023-07-09T05:26:35;3.83;;;2.70;;
10432;SDS011;5263;48.680;9.004;2023-07-09T05:29:02;4.50;;;2.70;;
10432;SDS011;5263;48.680;9.004;2023-07-09T05:31:29;3.83;;;2.83;;
10432;SDS011;5263;48.680;9.004;2023-07-09T05:33:55;4.33;;;2.93;;
10432;SDS011;5263;48.680;9.004;2023-07-09T05:36:20;5.20;;;2.90;;
10432;SDS011;5263;48.680;9.004;2023-07-09T05:38:46;4.60;;;2.87;;
10432;SDS011;5263;48.680;9.004;2023-07-09T05:41:12;4.93;;;3.13;;
10432;SDS011;5263;48.680;9.004;2023-07-09T05:43:37;4.17;;;3.53;;
10432;SDS011;5263;48.680;9.004;2023-07-09T05:46:04;3.60;;;2.87;;
10432;SDS011;5263;48.680;9.004;2023-07-09T05:48:30;4.47;;;2.93;;
10432;SDS011;5263;48.680;9.004;2023-07-09T05:50:56;5.53;;;3.27;;
10432;SDS011;5263;48.680;9.004;2023-07-09T05:53:22;5.50;;;2.50;;
10432;SDS011;5263;48.680;9.004;2023-07-09T05:55:48;5.07;;;3.13;;
10432;SDS011;5263;48.680;9.004;2023-07-09T05:58:14;6.07;;;3.23;;
10432;SDS011;5263;48.680;9.004;2023-07-09T06:00:39;6.17;;;3.00;;
10432;SDS011;5263;48.680;9.004;2023-07-09T06:03:06;4.60;;;3.00;;
10432;SDS011;5263;48.680;9.004;2023-07-09T06:05:33;6.03;;;3.40;;
10432;SDS011;5263;48.680;9.004;2023-07-09T06:07:59;3.03;;;2.60;;
10432;SDS011;5263;48.680;9.004;2023-07-09T06:10:24;3.77;;;3.03;;
10432;SDS011;5263;48.680;9.004;2023-07-09T06:12:50;3.17;;;2.93;;
10432;SDS011;5263;48.680;9.004;2023-07-09T06:15:16;10.40;;;4.27;;
10432;SDS011;5263;48.680;9.004;2023-07-09T06:17:41;5.40;;;3.80;;
10432;SDS011;5263;48.680;9.004;2023-07-09T06:20:07;5.50;;;3.20;;
10432;SDS011;5263;48.680;9.004;2023-07-09T06:22:33;5.07;;;3.10;;
10432;SDS011;5263;48.680;9.004;2023-07-09T06:24:59;4.70;;;3.13;;
10432;SDS011;5263;48.680;9.004;2023-07-09T06:27:25;3.63;;;3.33;;
10432;SDS011;5263;48.680;9.004;2023-07-09T06:29:51;3.23;;;2.70;;
10432;SDS011;5263;48.680;9.004;2023-07-09T06:32:17;2.53;;;2.33;;
10432;SDS011;5263;48.680;9.004;2023-07-09T06:34:43;3.17;;;2.80;;
10432;SDS011;5263;48.680;9.004;2023-07-09T06:37:08;5.00;;;3.13;;
10432;SDS011;5263;48.680;9.004;2023-07-09T06:39:34;3.37;;;3.00;;
10432;SDS011;5263;48.680;9.004;2023-07-09T06:42:00;2.70;;;2.50;;
10432;SDS011;5263;48.680;9.004;2023-07-09T06:44:27;4.27;;;2.17;;
10432;SDS011;5263;48.680;9.004;2023-07-09T06:46:53;3.67;;;3.00;;
10432;SDS011;5263;48.680;9.004;2023-07-09T06:49:18;7.53;;;3.30;;
10432;SDS011;5263;48.680;9.004;2023-07-09T06:51:44;2.93;;;2.50;;
10432;SDS011;5263;48.680;9.004;2023-07-09T06:54:11;5.53;;;2.80;;
10432;SDS011;5263;48.680;9.004;2023-07-09T06:56:37;5.70;;;2.33;;
10432;SDS011;5263;48.680;9.004;2023-07-09T06:59:03;5.67;;;2.53;;
10432;SDS011;5263;48.680;9.004;2023-07-09T07:01:29;3.00;;;2.40;;
10432;SDS011;5263;48.680;9.004;2023-07-09T07:03:55;3.43;;;2.17;;
10432;SDS011;5263;48.680;9.004;2023-07-09T07:06:20;5.20;;;2.70;;
10432;SDS011;5263;48.680;9.004;2023-07-09T07:08:46;6.07;;;5.47;;
10432;SDS011;5263;48.680;9.004;2023-07-09T07:11:11;6.83;;;3.50;;
10432;SDS011;5263;48.680;9.004;2023-07-09T07:13:38;4.13;;;2.57;;
10432;SDS011;5263;48.680;9.004;2023-07-09T07:16:05;9.80;;;2.70;;
10432;SDS011;5263;48.680;9.004;2023-07-09T07:18:32;4.60;;;2.77;;
10432;SDS011;5263;48.680;9.004;2023-07-09T07:20:58;3.13;;;2.67;;
10432;SDS011;5263;48.680;9.004;2023-07-09T07:23:24;6.40;;;2.87;;
10432;SDS011;5263;48.680;9.004;2023-07-09T07:25:50;2.90;;;2.70;;
10432;SDS011;5263;48.680;9.004;2023-07-09T07:28:16;3.97;;;2.73;;
10432;SDS011;5263;48.680;9.004;2023-07-09T07:30:42;4.90;;;2.40;;
10432;SDS011;5263;48.680;9.004;2023-07-09T07:33:08;2.93;;;2.40;;
10432;SDS011;5263;48.680;9.004;2023-07-09T07:35:34;3.57;;;2.40;;
10432;SDS011;5263;48.680;9.004;2023-07-09T07:38:01;9.27;;;2.37;;
10432;SDS011;5263;48.680;9.004;2023-07-09T07:40:27;2.93;;;2.57;;
10432;SDS011;5263;48.680;9.004;2023-07-09T07:42:52;3.83;;;3.00;;
10432;SDS011;5263;48.680;9.004;2023-07-09T07:45:18;2.70;;;2.00;;
10432;SDS011;5263;48.680;9.004;2023-07-09T07:47:45;8.37;;;2.43;;
10432;SDS011;5263;48.680;9.004;2023-07-09T07:50:11;4.07;;;1.93;;
10432;SDS011;5263;48.680;9.004;2023-07-09T07:52:36;2.40;;;2.20;;
10432;SDS011;5263;48.680;9.004;2023-07-09T07:55:11;5.17;;;2.13;;
10432;SDS011;5263;48.680;9.004;2023-07-09T07:57:37;2.53;;;2.13;;
10432;SDS011;5263;48.680;9.004;2023-07-09T08:00:02;5.97;;;1.77;;
10432;SDS011;5263;48.680;9.004;2023-07-09T08:02:29;6.00;;;1.93;;
10432;SDS011;5263;48.680;9.004;2023-07-09T08:04:55;5.63;;;1.90;;
10432;SDS011;5263;48.680;9.004;2023-07-09T08:07:20;3.57;;;2.20;;
10432;SDS011;5263;48.680;9.004;2023-07-09T08:09:46;3.53;;;2.00;;
10432;SDS011;5263;48.680;9.004;2023-07-09T08:12:12;2.03;;;1.83;;
10432;SDS011;5263;48.680;9.004;2023-07-09T08:14:39;4.47;;;2.83;;
10432;SDS011;5263;48.680;9.004;2023-07-09T08:17:06;5.63;;;2.40;;
10432;SDS011;5263;48.680;9.004;2023-07-09T08:19:42;4.87;;;2.63;;
10432;SDS011;5263;48.680;9.004;2023-07-09T08:22:13;3.50;;;2.43;;
10432;SDS011;5263;48.680;9.004;2023-07-09T08:24:39;2.75;;;2.40;;
10432;SDS011;5263;48.680;9.004;2023-07-09T08:27:06;2.20;;;2.00;;
10432;SDS011;5263;48.680;9.004;2023-07-09T08:29:32;2.67;;;1.50;;
10432;SDS011;5263;48.680;9.004;2023-07-09T08:31:57;6.00;;;2.40;;
10432;SDS011;5263;48.680;9.004;2023-07-09T08:34:23;3.83;;;2.20;;
10432;SDS011;5263;48.680;9.004;2023-07-09T08:36:49;2.53;;;2.10;;
10432;SDS011;5263;48.680;9.004;2023-07-09T08:39:14;3.40;;;2.20;;
10432;SDS011;5263;48.680;9.004;2023-07-09T08:41:45;2.50;;;1.90;;
10432;SDS011;5263;48.680;9.004;2023-07-09T08:49:54;2.65;;;1.95;;
10432;SDS011;5263;48.680;9.004;2023-07-09T08:54:59;3.75;;;2.25;;
10432;SDS011;5263;48.680;9.004;2023-07-09T08:57:34;5.10;;;3.65;;
10432;SDS011;5263;48.680;9.004;2023-07-09T09:00:17;2.65;;;1.80;;
10432;SDS011;5263;48.680;9.004;2023-07-09T09:02:50;1.73;;;1.60;;
10432;SDS011;5263;48.680;9.004;2023-07-09T09:05:21;1.85;;;1.75;;
10432;SDS011;5263;48.680;9.004;2023-07-09T09:08:11;9.15;;;2.72;;
10432;SDS011;5263;48.680;9.004;2023-07-09T09:11:05;2.13;;;1.90;;
10432;SDS011;5263;48.680;9.004;2023-07-09T09:13:55;3.95;;;1.40;;
10432;SDS011;5263;48.680;9.004;2023-07-09T09:16:30;2.80;;;1.73;;
10432;SDS011;5263;48.680;9.004;2023-07-09T09:18:58;3.13;;;2.03;;
10432;SDS011;5263;48.680;9.004;2023-07-09T09:21:35;2.65;;;2.20;;
10432;SDS011;5263;48.680;9.004;2023-07-09T09:24:26;2.35;;;1.92;;
10432;SDS011;5263;48.680;9.004;2023-07-09T09:27:10;1.95;;;1.75;;
10432;SDS011;5263;48.680;9.004;2023-07-09T09:29:36;4.57;;;2.15;;
10432;SDS011;5263;48.680;9.004;2023-07-09T09:32:02;5.25;;;1.80;;
10432;SDS011;5263;48.680;9.004;2023-07-09T09:34:43;2.28;;;1.60;;
10432;SDS011;5263;48.680;9.004;2023-07-09T09:37:12;4.88;;;1.58;;
10432;SDS011;5263;48.680;9.004;2023-07-09T09:39:38;2.35;;;1.63;;
10432;SDS011;5263;48.680;9.004;2023-07-09T09:42:07;2.10;;;1.90;;
10432;SDS011;5263;48.680;9.004;2023-07-09T09:44:36;3.60;;;2.13;;
10432;SDS011;5263;48.680;9.004;2023-07-09T09:47:10;3.85;;;2.28;;
10432;SDS011;5263;48.680;9.004;2023-07-09T09:49:43;1.70;;;1.60;;
10432;SDS011;5263;48.680;9.004;2023-07-09T09:52:12;2.38;;;2.08;;
10432;SDS011;5263;48.680;9.004;2023-07-09T09:54:40;5.00;;;1.83;;
10432;SDS011;5263;48.680;9.004;2023-07-09T09:57:15;5.28;;;2.10;;
10432;SDS011;5263;48.680;9.004;2023-07-09T09:59:42;3.47;;;2.22;;
10432;SDS011;5263;48.680;9.004;2023-07-09T10:02:15;4.90;;;2.17;;
10432;SDS011;5263;48.680;9.004;2023-07-09T10:04:43;3.45;;;2.00;;
10432;SDS011;5263;48.680;9.004;2023-07-09T10:07:22;7.00;;;2.50;;
10432;SDS011;5263;48.680;9.004;2023-07-09T10:09:57;2.40;;;1.65;;
10432;SDS011;5263;48.680;9.004;2023-07-09T10:15:11;2.47;;;1.70;;
10432;SDS011;5263;48.680;9.004;2023-07-09T10:18:02;4.45;;;1.80;;
10432;SDS011;5263;48.680;9.004;2023-07-09T10:25:40;5.25;;;1.75;;
10432;SDS011;5263;48.680;9.004;2023-07-09T10:28:28;4.65;;;2.28;;
10432;SDS011;5263;48.680;9.004;2023-07-09T10:34:03;4.07;;;1.58;;
10432;SDS011;5263;48.680;9.004;2023-07-09T10:39:33;1.55;;;1.45;;
10432;SDS011;5263;48.680;9.004;2023-07-09T10:42:02;1.60;;;1.50;;
10432;SDS011;5263;48.680;9.004;2023-07-09T10:44:30;2.22;;;1.35;;
10432;SDS011;5263;48.680;9.004;2023-07-09T10:47:01;2.95;;;1.90;;
10432;SDS011;5263;48.680;9.004;2023-07-09T10:49:32;4.68;;;2.20;;
10432;SDS011;5263;48.680;9.004;2023-07-09T10:52:06;2.55;;;2.33;;
10432;SDS011;5263;48.680;9.004;2023-07-09T11:00:20;3.10;;;2.63;;
10432;SDS011;5263;48.680;9.004;2023-07-09T11:02:52;4.22;;;2.65;;
10432;SDS011;5263;48.680;9.004;2023-07-09T11:05:24;2.70;;;2.13;;
10432;SDS011;5263;48.680;9.004;2023-07-09T11:10:37;2.58;;;2.05;;
10432;SDS011;5263;48.680;9.004;2023-07-09T11:13:17;2.00;;;1.33;;
10432;SDS011;5263;48.680;9.004;2023-07-09T11:15:48;2.22;;;2.00;;
10432;SDS011;5263;48.680;9.004;2023-07-09T11:18:25;2.00;;;1.90;;
10432;SDS011;5263;48.680;9.004;2023-07-09T11:21:14;2.15;;;1.80;;
10432;SDS011;5263;48.680;9.004;2023-07-09T11:23:50;2.45;;;1.80;;
10432;SDS011;5263;48.680;9.004;2023-07-09T11:28:52;4.25;;;2.47;;
10432;SDS011;5263;48.680;9.004;2023-07-09T11:31:24;2.85;;;2.08;;
10432;SDS011;5263;48.680;9.004;2023-07-09T11:33:59;2.25;;;2.05;;
10432;SDS011;5263;48.680;9.004;2023-07-09T11:36:31;4.40;;;1.98;;
10432;SDS011;5263;48.680;9.004;2023-07-09T11:38:56;5.75;;;1.80;;
10432;SDS011;5263;48.680;9.004;2023-07-09T11:41:34;2.58;;;2.22;;
10432;SDS011;5263;48.680;9.004;2023-07-09T11:44:18;2.85;;;1.95;;
10432;SDS011;5263;48.680;9.004;2023-07-09T11:46:54;5.65;;;2.38;;
10432;SDS011;5263;48.680;9.004;2023-07-09T11:49:51;4.65;;;2.28;;
10432;SDS011;5263;48.680;9.004;2023-07-09T11:52:28;3.80;;;2.65;;
10432;SDS011;5263;48.680;9.004;2023-07-09T11:55:03;3.30;;;2.25;;
10432;SDS011;5263;48.680;9.004;2023-07-09T11:58:04;4.90;;;2.05;;
10432;SDS011;5263;48.680;9.004;2023-07-09T12:00:37;3.20;;;1.90;;
10432;SDS011;5263;48.680;9.004;2023-07-09T12:03:05;3.40;;;2.28;;
10432;SDS011;5263;48.680;9.004;2023-07-09T12:05:35;3.28;;;1.73;;
10432;SDS011;5263;48.680;9.004;2023-07-09T12:08:05;6.97;;;2.50;;
10432;SDS011;5263;48.680;9.004;2023-07-09T12:10:32;2.55;;;2.10;;
10432;SDS011;5263;48.680;9.004;2023-07-09T12:12:59;5.97;;;2.60;;
10432;SDS011;5263;48.680;9.004;2023-07-09T12:15:26;3.30;;;2.70;;
10432;SDS011;5263;48.680;9.004;2023-07-09T12:18:08;3.05;;;1.88;;
10432;SDS011;5263;48.680;9.004;2023-07-09T12:20:36;3.15;;;2.42;;
10432;SDS011;5263;48.680;9.004;2023-07-09T12:25:49;3.53;;;2.40;;
10432;SDS011;5263;48.680;9.004;2023-07-09T12:28:17;3.85;;;2.75;;
10432;SDS011;5263;48.680;9.004;2023-07-09T12:30:50;6.90;;;3.75;;
10432;SDS011;5263;48.680;9.004;2023-07-09T12:33:17;10.25;;;4.50;;
10432;SDS011;5263;48.680;9.004;2023-07-09T12:35:45;3.53;;;2.65;;
10432;SDS011;5263;48.680;9.004;2023-07-09T12:38:16;7.55;;;3.22;;
10432;SDS011;5263;48.680;9.004;2023-07-09T12:40:46;5.53;;;2.28;;
10432;SDS011;5263;48.680;9.004;2023-07-09T12:43:21;7.82;;;3.05;;
10432;SDS011;5263;48.680;9.004;2023-07-09T12:45:51;4.93;;;2.88;;
10432;SDS011;5263;48.680;9.004;2023-07-09T12:48:19;7.07;;;2.75;;
10432;SDS011;5263;48.680;9.004;2023-07-09T12:50:50;4.18;;;2.03;;
10432;SDS011;5263;48.680;9.004;2023-07-09T12:53:17;5.57;;;2.67;;
10432;SDS011;5263;48.680;9.004;2023-07-09T12:55:46;4.55;;;3.17;;
10432;SDS011;5263;48.680;9.004;2023-07-09T12:58:18;3.90;;;2.20;;
10432;SDS011;5263;48.680;9.004;2023-07-09T13:00:49;4.72;;;2.72;;
10432;SDS011;5263;48.680;9.004;2023-07-09T13:03:20;3.30;;;2.45;;
10432;SDS011;5263;48.680;9.004;2023-07-09T13:06:23;2.17;;;2.05;;
10432;SDS011;5263;48.680;9.004;2023-07-09T13:08:54;5.00;;;2.65;;
10432;SDS011;5263;48.680;9.004;2023-07-09T13:11:24;4.10;;;1.92;;
10432;SDS011;5263;48.680;9.004;2023-07-09T13:13:58;3.20;;;2.45;;
10432;SDS011;5263;48.680;9.004;2023-07-09T13:16:27;3.17;;;2.20;;
10432;SDS011;5263;48.680;9.004;2023-07-09T13:18:52;3.50;;;2.33;;
10432;SDS011;5263;48.680;9.004;2023-07-09T13:21:19;3.33;;;2.25;;
10432;SDS011;5263;48.680;9.004;2023-07-09T13:23:46;2.38;;;2.15;;
10432;SDS011;5263;48.680;9.004;2023-07-09T13:26:12;6.05;;;2.50;;
10432;SDS011;5263;48.680;9.004;2023-07-09T13:28:39;3.33;;;2.25;;
10432;SDS011;5263;48.680;9.004;2023-07-09T13:31:15;5.10;;;2.42;;
10432;SDS011;5263;48.680;9.004;2023-07-09T13:33:47;4.13;;;1.85;;
10432;SDS011;5263;48.680;9.004;2023-07-09T13:36:17;3.22;;;2.08;;
10432;SDS011;5263;48.680;9.004;2023-07-09T13:38:43;2.67;;;1.92;;
10432;SDS011;5263;48.680;9.004;2023-07-09T13:41:13;3.95;;;1.98;;
10432;SDS011;5263;48.680;9.004;2023-07-09T13:43:45;6.65;;;2.17;;
10432;SDS011;5263;48.680;9.004;2023-07-09T13:46:11;2.83;;;2.05;;
10432;SDS011;5263;48.680;9.004;2023-07-09T13:48:38;4.15;;;1.88;;
10432;SDS011;5263;48.680;9.004;2023-07-09T13:51:15;4.13;;;2.58;;
10432;SDS011;5263;48.680;9.004;2023-07-09T13:53:46;7.47;;;2.38;;
10432;SDS011;5263;48.680;9.004;2023-07-09T13:56:12;3.10;;;2.13;;
10432;SDS011;5263;48.680;9.004;2023-07-09T13:58:38;6.47;;;2.03;;
10432;SDS011;5263;48.680;9.004;2023-07-09T14:01:11;3.33;;;1.77;;
10432;SDS011;5263;48.680;9.004;2023-07-09T14:03:40;4.78;;;1.92;;
10432;SDS011;5263;48.680;9.004;2023-07-09T14:06:08;4.50;;;1.55;;
10432;SDS011;5263;48.680;9.004;2023-07-09T14:08:38;6.13;;;2.10;;
10432;SDS011;5263;48.680;9.004;2023-07-09T14:11:08;6.50;;;2.25;;
10432;SDS011;5263;48.680;9.004;2023-07-09T14:13:38;4.15;;;1.80;;
10432;SDS011;5263;48.680;9.004;2023-07-09T14:16:05;2.35;;;2.15;;
10432;SDS011;5263;48.680;9.004;2023-07-09T14:18:31;3.65;;;1.80;;
10432;SDS011;5263;48.680;9.004;2023-07-09T14:20:57;2.58;;;2.00;;
10432;SDS011;5263;48.680;9.004;2023-07-09T14:23:22;2.05;;;1.55;;
10432;SDS011;5263;48.680;9.004;2023-07-09T14:25:48;2.70;;;1.63;;
10432;SDS011;5263;48.680;9.004;2023-07-09T14:28:16;1.55;;;1.40;;
10432;SDS011;5263;48.680;9.004;2023-07-09T14:30:43;3.08;;;1.52;;
10432;SDS011;5263;48.680;9.004;2023-07-09T14:33:14;5.15;;;2.20;;
10432;SDS011;5263;48.680;9.004;2023-07-09T14:35:42;3.50;;;2.25;;
10432;SDS011;5263;48.680;9.004;2023-07-09T14:38:14;2.35;;;2.15;;
10432;SDS011;5263;48.680;9.004;2023-07-09T14:40:51;3.00;;;1.70;;
10432;SDS011;5263;48.680;9.004;2023-07-09T14:43:19;3.50;;;2.38;;
10432;SDS011;5263;48.680;9.004;2023-07-09T14:45:44;3.63;;;1.73;;
10432;SDS011;5263;48.680;9.004;2023-07-09T14:48:11;2.05;;;1.85;;
10432;SDS011;5263;48.680;9.004;2023-07-09T14:50:38;1.75;;;1.65;;
10432;SDS011;5263;48.680;9.004;2023-07-09T14:53:09;1.88;;;1.75;;
10432;SDS011;5263;48.680;9.004;2023-07-09T14:55:40;2.22;;;1.50;;
10432;SDS011;5263;48.680;9.004;2023-07-09T14:58:12;5.15;;;1.88;;
10432;SDS011;5263;48.680;9.004;2023-07-09T15:00:40;4.40;;;2.00;;
10432;SDS011;5263;48.680;9.004;2023-07-09T15:03:07;3.15;;;2.03;;
10432;SDS011;5263;48.680;9.004;2023-07-09T15:05:35;3.70;;;2.13;;
10432;SDS011;5263;48.680;9.004;2023-07-09T15:08:01;2.30;;;1.60;;
10432;SDS011;5263;48.680;9.004;2023-07-09T15:10:36;3.13;;;1.60;;
10432;SDS011;5263;48.680;9.004;2023-07-09T15:13:02;2.08;;;1.88;;
10432;SDS011;5263;48.680;9.004;2023-07-09T15:15:30;4.55;;;1.38;;
10432;SDS011;5263;48.680;9.004;2023-07-09T15:17:56;4.28;;;1.98;;
10432;SDS011;5263;48.680;9.004;2023-07-09T15:20:25;2.90;;;1.88;;
10432;SDS011;5263;48.680;9.004;2023-07-09T15:22:54;3.63;;;1.48;;
10432;SDS011;5263;48.680;9.004;2023-07-09T15:25:23;1.95;;;1.40;;
10432;SDS011;5263;48.680;9.004;2023-07-09T15:27:50;4.25;;;1.90;;
10432;SDS011;5263;48.680;9.004;2023-07-09T15:30:17;4.78;;;1.63;;
10432;SDS011;5263;48.680;9.004;2023-07-09T15:32:45;5.30;;;1.65;;
10432;SDS011;5263;48.680;9.004;2023-07-09T15:35:12;2.63;;;1.98;;
10432;SDS011;5263;48.680;9.004;2023-07-09T15:37:39;2.90;;;1.77;;
10432;SDS011;5263;48.680;9.004;2023-07-09T15:40:13;7.93;;;3.17;;
10432;SDS011;5263;48.680;9.004;2023-07-09T15:42:40;4.63;;;2.65;;
10432;SDS011;5263;48.680;9.004;2023-07-09T15:45:06;5.28;;;2.13;;
10432;SDS011;5263;48.680;9.004;2023-07-09T15:47:32;5.00;;;2.75;;
10432;SDS011;5263;48.680;9.004;2023-07-09T15:49:58;2.78;;;2.30;;
10432;SDS011;5263;48.680;9.004;2023-07-09T15:52:24;4.28;;;1.73;;